sensor_id;sensor_type;location;lat;lon;timestamp;P1;durP1;ratioP1;P2;durP2;ratioP2
67344;SDS011;54230;52.402;6.276;2024-01-27T00:00:00;20.9;;;4.4;;
67344;SDS011;54230;52.402;6.276;2024-01-27T00:05:00;23.9;;;4.9;;
67344;SDS011;54230;52.402;6.276;2024-01-27T00:10:01;23.6;;;4.0;;
67344;SDS011;54230;52.402;6.276;2024-01-27T00:15:00;17.0;;;3.7;;
67344;SDS011;54230;52.402;6.276;2024-01-27T00:20:00;23.2;;;4.2;;
67344;SDS011;54230;52.402;6.276;2024-01-27T00:25:00;17.7;;;4.1;;
67344;SDS011;54230;52.402;6.276;2024-01-27T00:30:00;16.5;;;4.0;;
67344;SDS011;54230;52.402;6.276;2024-01-27T00:35:00;21.0;;;4.3;;
67344;SDS011;54230;52.402;6.276;2024-01-27T00:40:00;20.1;;;4.0;;
67344;SDS011;54230;52.402;6.276;2024-01-27T00:45:00;16.9;;;4.3;;
67344;SDS011;54230;52.402;6.276;2024-01-27T00:50:00;22.0;;;4.3;;
67344;SDS011;54230;52.402;6.276;2024-01-27T00:55:00;18.0;;;4.4;;
67344;SDS011;54230;52.402;6.276;2024-01-27T01:00:00;21.4;;;3.8;;
67344;SDS011;54230;52.402;6.276;2024-01-27T01:05:00;22.4;;;5.0;;
67344;SDS011;54230;52.402;6.276;2024-01-27T01:10:00;27.4;;;4.5;;
67344;SDS011;54230;52.402;6.276;2024-01-27T01:15:00;21.5;;;4.5;;
67344;SDS011;54230;52.402;6.276;2024-01-27T01:20:00;19.5;;;4.5;;
67344;SDS011;54230;52.402;6.276;2024-01-27T01:25:00;21.6;;;4.6;;
67344;SDS011;54230;52.402;6.276;2024-01-27T01:30:00;20.6;;;4.9;;
67344;SDS011;54230;52.402;6.276;2024-01-27T01:35:00;18.3;;;5.0;;
67344;SDS011;54230;52.402;6.276;2024-01-27T01:40:00;21.5;;;5.9;;
67344;SDS011;54230;52.402;6.276;2024-01-27T01:45:00;21.1;;;4.7;;
67344;SDS011;54230;52.402;6.276;2024-01-27T01:50:00;25.0;;;5.3;;
67344;SDS011;54230;52.402;6.276;2024-01-27T01:55:00;21.0;;;5.7;;
67344;SDS011;54230;52.402;6.276;2024-01-27T02:00:00;20.4;;;5.4;;
67344;SDS011;54230;52.402;6.276;2024-01-27T02:05:00;17.0;;;6.8;;
67344;SDS011;54230;52.402;6.276;2024-01-27T02:10:00;19.4;;;5.8;;
67344;SDS011;54230;52.402;6.276;2024-01-27T02:15:00;19.4;;;5.6;;
67344;SDS011;54230;52.402;6.276;2024-01-27T02:20:00;19.6;;;6.0;;
67344;SDS011;54230;52.402;6.276;2024-01-27T02:25:00;25.5;;;5.8;;
67344;SDS011;54230;52.402;6.276;2024-01-27T02:30:00;22.5;;;6.5;;
67344;SDS011;54230;52.402;6.276;2024-01-27T02:35:00;20.4;;;8.1;;
67344;SDS011;54230;52.402;6.276;2024-01-27T02:40:00;19.3;;;7.0;;
67344;SDS011;54230;52.402;6.276;2024-01-27T02:45:00;24.0;;;9.1;;
67344;SDS011;54230;52.402;6.276;2024-01-27T02:50:00;23.6;;;8.9;;
67344;SDS011;54230;52.402;6.276;2024-01-27T02:55:00;28.6;;;9.1;;
67344;SDS011;54230;52.402;6.276;2024-01-27T03:00:00;18.3;;;7.9;;
67344;SDS011;54230;52.402;6.276;2024-01-27T03:05:00;21.2;;;7.9;;
67344;SDS011;54230;52.402;6.276;2024-01-27T03:10:00;22.8;;;7.7;;
67344;SDS011;54230;52.402;6.276;2024-01-27T03:15:00;21.7;;;7.6;;
67344;SDS011;54230;52.402;6.276;2024-01-27T03:20:00;24.9;;;7.7;;
67344;SDS011;54230;52.402;6.276;2024-01-27T03:25:00;24.5;;;9.0;;
67344;SDS011;54230;52.402;6.276;2024-01-27T03:30:00;21.7;;;9.2;;
67344;SDS011;54230;52.402;6.276;2024-01-27T03:35:00;22.6;;;9.4;;
67344;SDS011;54230;52.402;6.276;2024-01-27T03:40:00;26.9;;;11.6;;
67344;SDS011;54230;52.402;6.276;2024-01-27T03:45:00;28.4;;;12.1;;
67344;SDS011;54230;52.402;6.276;2024-01-27T03:50:00;28.5;;;11.5;;
67344;SDS011;54230;52.402;6.276;2024-01-27T03:55:00;23.0;;;13.3;;
67344;SDS011;54230;52.402;6.276;2024-01-27T04:00:00;25.9;;;12.4;;
67344;SDS011;54230;52.402;6.276;2024-01-27T04:05:00;30.8;;;13.5;;
67344;SDS011;54230;52.402;6.276;2024-01-27T04:10:01;31.6;;;14.7;;
67344;SDS011;54230;52.402;6.276;2024-01-27T04:15:00;29.3;;;14.0;;
67344;SDS011;54230;52.402;6.276;2024-01-27T04:20:00;31.4;;;13.6;;
67344;SDS011;54230;52.402;6.276;2024-01-27T04:25:00;32.7;;;16.8;;
67344;SDS011;54230;52.402;6.276;2024-01-27T04:30:00;30.5;;;15.3;;
67344;SDS011;54230;52.402;6.276;2024-01-27T04:35:00;25.0;;;14.6;;
67344;SDS011;54230;52.402;6.276;2024-01-27T04:40:00;30.1;;;15.7;;
67344;SDS011;54230;52.402;6.276;2024-01-27T04:45:00;31.1;;;15.8;;
67344;SDS011;54230;52.402;6.276;2024-01-27T04:50:00;34.8;;;17.6;;
67344;SDS011;54230;52.402;6.276;2024-01-27T04:55:00;34.7;;;19.0;;
67344;SDS011;54230;52.402;6.276;2024-01-27T05:00:00;29.9;;;17.2;;
67344;SDS011;54230;52.402;6.276;2024-01-27T05:05:00;34.9;;;17.2;;
67344;SDS011;54230;52.402;6.276;2024-01-27T05:10:00;34.6;;;16.6;;
67344;SDS011;54230;52.402;6.276;2024-01-27T05:15:00;31.8;;;18.7;;
67344;SDS011;54230;52.402;6.276;2024-01-27T05:20:00;34.3;;;18.0;;
67344;SDS011;54230;52.402;6.276;2024-01-27T05:25:00;30.1;;;17.5;;
67344;SDS011;54230;52.402;6.276;2024-01-27T05:30:00;29.4;;;16.3;;
67344;SDS011;54230;52.402;6.276;2024-01-27T05:35:00;28.8;;;17.5;;
67344;SDS011;54230;52.402;6.276;2024-01-27T05:40:00;32.6;;;21.4;;
67344;SDS011;54230;52.402;6.276;2024-01-27T05:45:00;36.7;;;18.3;;
67344;SDS011;54230;52.402;6.276;2024-01-27T05:50:00;28.3;;;18.3;;
67344;SDS011;54230;52.402;6.276;2024-01-27T05:55:00;37.0;;;18.2;;
67344;SDS011;54230;52.402;6.276;2024-01-27T06:00:00;37.8;;;20.9;;
67344;SDS011;54230;52.402;6.276;2024-01-27T06:05:00;33.7;;;19.3;;
67344;SDS011;54230;52.402;6.276;2024-01-27T06:10:00;35.3;;;20.9;;
67344;SDS011;54230;52.402;6.276;2024-01-27T06:15:00;33.6;;;20.5;;
67344;SDS011;54230;52.402;6.276;2024-01-27T06:20:00;34.5;;;20.4;;
67344;SDS011;54230;52.402;6.276;2024-01-27T06:25:00;34.9;;;21.8;;
67344;SDS011;54230;52.402;6.276;2024-01-27T06:30:00;36.6;;;21.7;;
67344;SDS011;54230;52.402;6.276;2024-01-27T06:35:00;41.7;;;23.1;;
67344;SDS011;54230;52.402;6.276;2024-01-27T06:40:00;44.0;;;23.9;;
67344;SDS011;54230;52.402;6.276;2024-01-27T06:45:00;36.4;;;22.7;;
67344;SDS011;54230;52.402;6.276;2024-01-27T06:50:00;40.8;;;24.3;;
67344;SDS011;54230;52.402;6.276;2024-01-27T06:55:00;39.4;;;22.0;;
67344;SDS011;54230;52.402;6.276;2024-01-27T07:00:00;38.4;;;23.1;;
67344;SDS011;54230;52.402;6.276;2024-01-27T07:05:00;39.0;;;22.2;;
67344;SDS011;54230;52.402;6.276;2024-01-27T07:10:00;40.6;;;26.1;;
67344;SDS011;54230;52.402;6.276;2024-01-27T07:15:00;43.2;;;27.5;;
67344;SDS011;54230;52.402;6.276;2024-01-27T07:20:00;46.3;;;27.0;;
67344;SDS011;54230;52.402;6.276;2024-01-27T07:25:00;40.3;;;26.3;;
67344;SDS011;54230;52.402;6.276;2024-01-27T07:30:00;43.0;;;26.1;;
67344;SDS011;54230;52.402;6.276;2024-01-27T07:35:00;38.3;;;24.9;;
67344;SDS011;54230;52.402;6.276;2024-01-27T07:40:00;42.5;;;27.5;;
67344;SDS011;54230;52.402;6.276;2024-01-27T07:45:00;50.4;;;32.0;;
67344;SDS011;54230;52.402;6.276;2024-01-27T07:50:00;44.2;;;28.9;;
67344;SDS011;54230;52.402;6.276;2024-01-27T07:55:00;48.6;;;28.7;;
67344;SDS011;54230;52.402;6.276;2024-01-27T08:00:00;42.9;;;27.3;;
67344;SDS011;54230;52.402;6.276;2024-01-27T08:05:00;47.2;;;28.5;;
67344;SDS011;54230;52.402;6.276;2024-01-27T08:10:00;46.6;;;27.0;;
67344;SDS011;54230;52.402;6.276;2024-01-27T08:15:00;44.4;;;25.6;;
67344;SDS011;54230;52.402;6.276;2024-01-27T08:20:00;45.1;;;26.8;;
67344;SDS011;54230;52.402;6.276;2024-01-27T08:25:00;43.2;;;24.4;;
67344;SDS011;54230;52.402;6.276;2024-01-27T08:30:00;48.8;;;24.9;;
67344;SDS011;54230;52.402;6.276;2024-01-27T08:35:00;48.6;;;25.9;;
67344;SDS011;54230;52.402;6.276;2024-01-27T08:40:00;42.3;;;24.0;;
67344;SDS011;54230;52.402;6.276;2024-01-27T08:45:00;45.0;;;21.7;;
67344;SDS011;54230;52.402;6.276;2024-01-27T08:50:00;43.5;;;18.4;;
67344;SDS011;54230;52.402;6.276;2024-01-27T08:55:00;39.3;;;16.4;;
67344;SDS011;54230;52.402;6.276;2024-01-27T09:00:00;39.8;;;16.1;;
67344;SDS011;54230;52.402;6.276;2024-01-27T09:05:00;39.6;;;15.1;;
67344;SDS011;54230;52.402;6.276;2024-01-27T09:10:00;36.7;;;13.8;;
67344;SDS011;54230;52.402;6.276;2024-01-27T09:15:00;35.6;;;13.1;;
67344;SDS011;54230;52.402;6.276;2024-01-27T09:20:00;35.1;;;13.5;;
67344;SDS011;54230;52.402;6.276;2024-01-27T09:25:00;36.2;;;12.3;;
67344;SDS011;54230;52.402;6.276;2024-01-27T09:30:00;29.8;;;12.6;;
67344;SDS011;54230;52.402;6.276;2024-01-27T09:35:00;32.4;;;12.6;;
67344;SDS011;54230;52.402;6.276;2024-01-27T09:40:00;33.7;;;12.5;;
67344;SDS011;54230;52.402;6.276;2024-01-27T09:45:00;29.9;;;11.7;;
67344;SDS011;54230;52.402;6.276;2024-01-27T09:50:00;29.3;;;10.8;;
67344;SDS011;54230;52.402;6.276;2024-01-27T09:55:00;27.5;;;11.1;;
67344;SDS011;54230;52.402;6.276;2024-01-27T10:00:00;27.2;;;11.3;;
67344;SDS011;54230;52.402;6.276;2024-01-27T10:05:00;27.4;;;10.1;;
67344;SDS011;54230;52.402;6.276;2024-01-27T10:10:00;23.6;;;9.6;;
67344;SDS011;54230;52.402;6.276;2024-01-27T10:15:00;25.1;;;9.7;;
67344;SDS011;54230;52.402;6.276;2024-01-27T10:20:00;20.7;;;9.7;;
67344;SDS011;54230;52.402;6.276;2024-01-27T10:25:00;23.7;;;9.4;;
67344;SDS011;54230;52.402;6.276;2024-01-27T10:30:00;27.7;;;8.6;;
67344;SDS011;54230;52.402;6.276;2024-01-27T10:35:01;30.1;;;8.9;;
67344;SDS011;54230;52.402;6.276;2024-01-27T10:40:00;26.8;;;7.9;;
67344;SDS011;54230;52.402;6.276;2024-01-27T10:45:00;22.4;;;7.7;;
67344;SDS011;54230;52.402;6.276;2024-01-27T10:50:00;18.2;;;7.2;;
67344;SDS011;54230;52.402;6.276;2024-01-27T10:55:00;18.1;;;7.3;;
67344;SDS011;54230;52.402;6.276;2024-01-27T11:00:01;20.8;;;7.7;;
67344;SDS011;54230;52.402;6.276;2024-01-27T11:05:00;24.2;;;7.8;;
67344;SDS011;54230;52.402;6.276;2024-01-27T11:10:00;23.8;;;7.7;;
67344;SDS011;54230;52.402;6.276;2024-01-27T11:15:00;20.7;;;7.7;;
67344;SDS011;54230;52.402;6.276;2024-01-27T11:20:00;19.9;;;7.0;;
67344;SDS011;54230;52.402;6.276;2024-01-27T11:25:07;16.7;;;6.6;;
67344;SDS011;54230;52.402;6.276;2024-01-27T11:30:00;19.9;;;6.7;;
67344;SDS011;54230;52.402;6.276;2024-01-27T11:35:00;14.7;;;6.0;;
67344;SDS011;54230;52.402;6.276;2024-01-27T11:40:03;18.8;;;5.6;;
67344;SDS011;54230;52.402;6.276;2024-01-27T11:45:00;17.4;;;5.9;;
67344;SDS011;54230;52.402;6.276;2024-01-27T11:50:00;17.6;;;5.8;;
67344;SDS011;54230;52.402;6.276;2024-01-27T11:55:00;17.6;;;5.8;;
67344;SDS011;54230;52.402;6.276;2024-01-27T12:00:00;18.6;;;5.8;;
67344;SDS011;54230;52.402;6.276;2024-01-27T12:05:00;21.0;;;5.9;;
67344;SDS011;54230;52.402;6.276;2024-01-27T12:10:00;21.8;;;6.5;;
67344;SDS011;54230;52.402;6.276;2024-01-27T12:15:00;14.4;;;5.7;;
67344;SDS011;54230;52.402;6.276;2024-01-27T12:20:00;20.4;;;6.0;;
67344;SDS011;54230;52.402;6.276;2024-01-27T12:25:07;17.0;;;5.7;;
67344;SDS011;54230;52.402;6.276;2024-01-27T12:30:00;15.7;;;5.5;;
67344;SDS011;54230;52.402;6.276;2024-01-27T12:35:05;13.8;;;5.6;;
67344;SDS011;54230;52.402;6.276;2024-01-27T12:40:00;16.3;;;5.5;;
67344;SDS011;54230;52.402;6.276;2024-01-27T12:45:00;16.0;;;5.1;;
67344;SDS011;54230;52.402;6.276;2024-01-27T12:50:00;15.7;;;4.5;;
67344;SDS011;54230;52.402;6.276;2024-01-27T12:55:00;18.0;;;5.1;;
67344;SDS011;54230;52.402;6.276;2024-01-27T13:00:00;12.9;;;4.4;;
67344;SDS011;54230;52.402;6.276;2024-01-27T13:05:00;15.8;;;4.8;;
67344;SDS011;54230;52.402;6.276;2024-01-27T13:10:00;14.3;;;4.6;;
67344;SDS011;54230;52.402;6.276;2024-01-27T13:15:00;15.1;;;4.0;;
67344;SDS011;54230;52.402;6.276;2024-01-27T13:20:00;14.8;;;4.2;;
67344;SDS011;54230;52.402;6.276;2024-01-27T13:25:00;13.7;;;3.9;;
67344;SDS011;54230;52.402;6.276;2024-01-27T13:30:00;17.2;;;4.1;;
67344;SDS011;54230;52.402;6.276;2024-01-27T13:35:00;12.3;;;4.0;;
67344;SDS011;54230;52.402;6.276;2024-01-27T13:40:00;10.8;;;3.7;;
67344;SDS011;54230;52.402;6.276;2024-01-27T13:45:00;10.4;;;3.7;;
67344;SDS011;54230;52.402;6.276;2024-01-27T13:50:00;12.4;;;3.9;;
67344;SDS011;54230;52.402;6.276;2024-01-27T13:55:00;11.9;;;3.7;;
67344;SDS011;54230;52.402;6.276;2024-01-27T14:00:00;12.1;;;3.6;;
67344;SDS011;54230;52.402;6.276;2024-01-27T14:05:00;17.7;;;4.5;;
67344;SDS011;54230;52.402;6.276;2024-01-27T14:10:00;15.5;;;3.8;;
67344;SDS011;54230;52.402;6.276;2024-01-27T14:15:03;16.9;;;4.6;;
67344;SDS011;54230;52.402;6.276;2024-01-27T14:20:00;15.2;;;4.0;;
67344;SDS011;54230;52.402;6.276;2024-01-27T14:25:00;14.1;;;4.3;;
67344;SDS011;54230;52.402;6.276;2024-01-27T14:30:00;14.9;;;3.9;;
67344;SDS011;54230;52.402;6.276;2024-01-27T14:35:00;12.7;;;4.3;;
67344;SDS011;54230;52.402;6.276;2024-01-27T14:40:00;13.6;;;4.0;;
67344;SDS011;54230;52.402;6.276;2024-01-27T14:45:00;17.6;;;4.1;;
67344;SDS011;54230;52.402;6.276;2024-01-27T14:50:00;12.1;;;3.8;;
67344;SDS011;54230;52.402;6.276;2024-01-27T14:55:00;14.2;;;3.9;;
67344;SDS011;54230;52.402;6.276;2024-01-27T15:00:00;12.2;;;3.8;;
67344;SDS011;54230;52.402;6.276;2024-01-27T15:05:00;13.0;;;4.2;;
67344;SDS011;54230;52.402;6.276;2024-01-27T15:10:00;13.6;;;4.1;;
67344;SDS011;54230;52.402;6.276;2024-01-27T15:15:00;15.6;;;4.0;;
67344;SDS011;54230;52.402;6.276;2024-01-27T15:20:00;13.1;;;3.9;;
67344;SDS011;54230;52.402;6.276;2024-01-27T15:25:00;14.4;;;4.7;;
67344;SDS011;54230;52.402;6.276;2024-01-27T15:30:00;18.7;;;4.4;;
67344;SDS011;54230;52.402;6.276;2024-01-27T15:35:00;15.4;;;4.3;;
67344;SDS011;54230;52.402;6.276;2024-01-27T15:40:00;13.8;;;4.1;;
67344;SDS011;54230;52.402;6.276;2024-01-27T15:45:00;18.5;;;4.1;;
67344;SDS011;54230;52.402;6.276;2024-01-27T15:50:00;13.3;;;3.9;;
67344;SDS011;54230;52.402;6.276;2024-01-27T15:55:00;11.5;;;4.1;;
67344;SDS011;54230;52.402;6.276;2024-01-27T16:00:00;17.2;;;5.2;;
67344;SDS011;54230;52.402;6.276;2024-01-27T16:05:00;12.7;;;4.7;;
67344;SDS011;54230;52.402;6.276;2024-01-27T16:10:00;13.7;;;4.7;;
67344;SDS011;54230;52.402;6.276;2024-01-27T16:15:00;13.3;;;4.3;;
67344;SDS011;54230;52.402;6.276;2024-01-27T16:20:00;14.3;;;4.4;;
67344;SDS011;54230;52.402;6.276;2024-01-27T16:25:00;14.3;;;4.8;;
67344;SDS011;54230;52.402;6.276;2024-01-27T16:30:00;15.1;;;4.9;;
67344;SDS011;54230;52.402;6.276;2024-01-27T16:35:00;16.8;;;4.9;;
67344;SDS011;54230;52.402;6.276;2024-01-27T16:40:00;16.4;;;6.8;;
67344;SDS011;54230;52.402;6.276;2024-01-27T16:45:00;18.6;;;5.4;;
67344;SDS011;54230;52.402;6.276;2024-01-27T16:50:00;20.0;;;5.9;;
67344;SDS011;54230;52.402;6.276;2024-01-27T16:55:00;16.6;;;5.8;;
67344;SDS011;54230;52.402;6.276;2024-01-27T17:00:00;20.8;;;6.6;;
67344;SDS011;54230;52.402;6.276;2024-01-27T17:05:00;20.4;;;7.6;;
67344;SDS011;54230;52.402;6.276;2024-01-27T17:10:02;22.7;;;7.0;;
67344;SDS011;54230;52.402;6.276;2024-01-27T17:15:00;21.4;;;7.0;;
67344;SDS011;54230;52.402;6.276;2024-01-27T17:20:00;25.8;;;7.6;;
67344;SDS011;54230;52.402;6.276;2024-01-27T17:25:00;24.7;;;8.0;;
67344;SDS011;54230;52.402;6.276;2024-01-27T17:30:00;20.5;;;7.4;;
67344;SDS011;54230;52.402;6.276;2024-01-27T17:35:00;20.0;;;7.3;;
67344;SDS011;54230;52.402;6.276;2024-01-27T17:40:00;20.7;;;7.7;;
67344;SDS011;54230;52.402;6.276;2024-01-27T17:45:00;20.8;;;7.9;;
67344;SDS011;54230;52.402;6.276;2024-01-27T17:50:00;22.6;;;8.6;;
67344;SDS011;54230;52.402;6.276;2024-01-27T17:55:00;22.1;;;8.3;;
67344;SDS011;54230;52.402;6.276;2024-01-27T18:00:00;23.9;;;8.3;;
67344;SDS011;54230;52.402;6.276;2024-01-27T18:05:00;22.7;;;8.0;;
67344;SDS011;54230;52.402;6.276;2024-01-27T18:10:00;22.8;;;8.0;;
67344;SDS011;54230;52.402;6.276;2024-01-27T18:15:00;26.1;;;8.5;;
67344;SDS011;54230;52.402;6.276;2024-01-27T18:20:00;24.2;;;8.2;;
67344;SDS011;54230;52.402;6.276;2024-01-27T18:25:00;32.9;;;12.4;;
67344;SDS011;54230;52.402;6.276;2024-01-27T18:30:00;24.7;;;9.5;;
67344;SDS011;54230;52.402;6.276;2024-01-27T18:35:00;25.0;;;9.1;;
67344;SDS011;54230;52.402;6.276;2024-01-27T18:40:00;28.2;;;9.4;;
67344;SDS011;54230;52.402;6.276;2024-01-27T18:45:00;29.9;;;8.9;;
67344;SDS011;54230;52.402;6.276;2024-01-27T18:50:00;24.6;;;9.6;;
67344;SDS011;54230;52.402;6.276;2024-01-27T18:55:00;25.1;;;10.1;;
67344;SDS011;54230;52.402;6.276;2024-01-27T19:00:00;23.1;;;10.1;;
67344;SDS011;54230;52.402;6.276;2024-01-27T19:05:00;28.8;;;10.3;;
67344;SDS011;54230;52.402;6.276;2024-01-27T19:10:00;23.0;;;9.6;;
67344;SDS011;54230;52.402;6.276;2024-01-27T19:15:00;27.6;;;10.1;;
67344;SDS011;54230;52.402;6.276;2024-01-27T19:20:00;22.6;;;9.8;;
67344;SDS011;54230;52.402;6.276;2024-01-27T19:25:00;29.9;;;10.5;;
67344;SDS011;54230;52.402;6.276;2024-01-27T19:30:00;24.5;;;9.6;;
67344;SDS011;54230;52.402;6.276;2024-01-27T19:35:00;30.2;;;9.7;;
67344;SDS011;54230;52.402;6.276;2024-01-27T19:40:00;26.1;;;10.9;;
67344;SDS011;54230;52.402;6.276;2024-01-27T19:45:00;25.7;;;10.4;;
67344;SDS011;54230;52.402;6.276;2024-01-27T19:50:00;26.3;;;9.8;;
67344;SDS011;54230;52.402;6.276;2024-01-27T19:55:00;26.6;;;11.6;;
67344;SDS011;54230;52.402;6.276;2024-01-27T20:00:00;25.9;;;10.4;;
67344;SDS011;54230;52.402;6.276;2024-01-27T20:05:00;28.4;;;11.2;;
67344;SDS011;54230;52.402;6.276;2024-01-27T20:10:00;31.5;;;12.8;;
67344;SDS011;54230;52.402;6.276;2024-01-27T20:15:00;29.3;;;11.2;;
67344;SDS011;54230;52.402;6.276;2024-01-27T20:20:00;26.5;;;9.9;;
67344;SDS011;54230;52.402;6.276;2024-01-27T20:25:00;28.9;;;9.5;;
67344;SDS011;54230;52.402;6.276;2024-01-27T20:30:00;23.2;;;9.6;;
67344;SDS011;54230;52.402;6.276;2024-01-27T20:35:00;24.2;;;10.2;;
67344;SDS011;54230;52.402;6.276;2024-01-27T20:40:00;23.8;;;9.2;;
67344;SDS011;54230;52.402;6.276;2024-01-27T20:45:00;26.3;;;9.0;;
67344;SDS011;54230;52.402;6.276;2024-01-27T20:50:00;22.0;;;8.5;;
67344;SDS011;54230;52.402;6.276;2024-01-27T20:55:00;25.3;;;10.0;;
67344;SDS011;54230;52.402;6.276;2024-01-27T21:00:00;28.8;;;10.0;;
67344;SDS011;54230;52.402;6.276;2024-01-27T21:05:00;31.8;;;11.1;;
67344;SDS011;54230;52.402;6.276;2024-01-27T21:10:00;62.8;;;15.9;;
67344;SDS011;54230;52.402;6.276;2024-01-27T21:15:00;49.7;;;14.6;;
67344;SDS011;54230;52.402;6.276;2024-01-27T21:20:00;29.9;;;11.9;;
67344;SDS011;54230;52.402;6.276;2024-01-27T21:25:00;27.8;;;11.1;;
67344;SDS011;54230;52.402;6.276;2024-01-27T21:30:00;23.4;;;9.9;;
67344;SDS011;54230;52.402;6.276;2024-01-27T21:35:00;23.3;;;9.8;;
67344;SDS011;54230;52.402;6.276;2024-01-27T21:40:00;28.9;;;11.7;;
67344;SDS011;54230;52.402;6.276;2024-01-27T21:45:00;27.8;;;10.3;;
67344;SDS011;54230;52.402;6.276;2024-01-27T21:50:00;22.4;;;10.0;;
67344;SDS011;54230;52.402;6.276;2024-01-27T21:55:00;24.4;;;9.1;;
67344;SDS011;54230;52.402;6.276;2024-01-27T22:00:00;18.8;;;8.4;;
67344;SDS011;54230;52.402;6.276;2024-01-27T22:05:00;21.6;;;9.2;;
67344;SDS011;54230;52.402;6.276;2024-01-27T22:10:00;23.7;;;9.6;;
67344;SDS011;54230;52.402;6.276;2024-01-27T22:15:00;24.7;;;9.8;;
67344;SDS011;54230;52.402;6.276;2024-01-27T22:20:00;22.9;;;9.5;;
67344;SDS011;54230;52.402;6.276;2024-01-27T22:25:00;22.5;;;8.7;;
67344;SDS011;54230;52.402;6.276;2024-01-27T22:30:00;25.2;;;9.4;;
67344;SDS011;54230;52.402;6.276;2024-01-27T22:35:00;28.0;;;9.9;;
67344;SDS011;54230;52.402;6.276;2024-01-27T22:40:00;32.4;;;9.9;;
67344;SDS011;54230;52.402;6.276;2024-01-27T22:45:00;20.9;;;9.3;;
67344;SDS011;54230;52.402;6.276;2024-01-27T22:50:00;28.9;;;10.1;;
67344;SDS011;54230;52.402;6.276;2024-01-27T22:55:00;25.3;;;10.2;;
67344;SDS011;54230;52.402;6.276;2024-01-27T23:00:00;19.4;;;9.1;;
67344;SDS011;54230;52.402;6.276;2024-01-27T23:05:00;22.2;;;9.6;;
67344;SDS011;54230;52.402;6.276;2024-01-27T23:10:00;22.4;;;9.4;;
67344;SDS011;54230;52.402;6.276;2024-01-27T23:15:00;25.6;;;10.3;;
67344;SDS011;54230;52.402;6.276;2024-01-27T23:20:00;23.1;;;10.2;;
67344;SDS011;54230;52.402;6.276;2024-01-27T23:25:00;26.3;;;11.5;;
67344;SDS011;54230;52.402;6.276;2024-01-27T23:30:00;23.1;;;10.4;;
67344;SDS011;54230;52.402;6.276;2024-01-27T23:35:00;24.2;;;10.4;;
67344;SDS011;54230;52.402;6.276;2024-01-27T23:40:00;25.8;;;11.1;;
67344;SDS011;54230;52.402;6.276;2024-01-27T23:45:00;22.9;;;11.5;;
67344;SDS011;54230;52.402;6.276;2024-01-27T23:50:00;23.3;;;11.9;;
67344;SDS011;54230;52.402;6.276;2024-01-27T23:55:00;21.4;;;10.1;;
